Time;durP1;ratioP1;P1;durP2;ratioP2;P2;SDS_P1;SDS_P2;PMS_P1;PMS_P2;Temp;Humidity;BMP_temperature;BMP_pressure;BME280_temperature;BME280_humidity;BME280_pressure;Samples;Min_cycle;Max_cycle;Signal;HPM_P1;HPM_P2
2023/10/03 00:00:32;;;;;;;19.45;10.98;;;;;;;21.57;61.10;100990.47;4921753;29;20067;-70
2023/10/03 00:03:00;;;;;;;21.52;11.48;;;;;;;21.56;61.24;100992.28;4924093;29;20036;-71
2023/10/03 00:05:31;;;;;;;22.00;11.15;;;;;;;21.56;61.29;100991.44;4924650;29;20063;-71
2023/10/03 00:08:00;;;;;;;24.27;11.73;;;;;;;21.56;60.86;100978.19;4923329;29;20036;-71
2023/10/03 00:10:26;;;;;;;21.17;11.02;;;;;;;21.55;61.04;100979.16;4923917;29;20125;-73
2023/10/03 00:12:52;;;;;;;22.90;11.45;;;;;;;21.55;61.12;100966.75;4924605;29;20038;-71
2023/10/03 00:15:19;;;;;;;22.77;10.95;;;;;;;21.55;61.17;100964.09;4927061;29;20035;-71
2023/10/03 00:17:44;;;;;;;21.58;11.38;;;;;;;21.54;61.17;100957.13;4926227;29;20588;-74
2023/10/03 00:20:12;;;;;;;21.38;11.15;;;;;;;21.54;61.24;100959.78;4923450;29;20964;-71
2023/10/03 00:22:38;;;;;;;22.30;11.52;;;;;;;21.54;61.30;100962.44;4931629;29;20076;-71
2023/10/03 00:25:07;;;;;;;21.58;11.95;;;;;;;21.54;60.93;100961.59;4928582;29;20036;-71
2023/10/03 00:27:35;;;;;;;21.95;11.73;;;;;;;21.54;61.16;100957.13;4930333;29;20066;-71
2023/10/03 00:30:00;;;;;;;19.70;10.80;;;;;;;21.54;61.33;100946.50;4924073;29;20090;-74
2023/10/03 00:32:26;;;;;;;22.20;10.90;;;;;;;21.54;61.14;100949.16;4932299;29;20067;-75
2023/10/03 00:34:51;;;;;;;21.80;11.30;;;;;;;21.53;61.28;100936.06;4919848;29;20031;-72
2023/10/03 00:37:17;;;;;;;21.83;11.57;;;;;;;21.53;60.96;100936.88;4932702;29;20039;-74
2023/10/03 00:39:43;;;;;;;21.52;11.68;;;;;;;21.53;61.12;100930.75;4931065;29;20079;-70
2023/10/03 00:42:10;;;;;;;20.55;10.88;;;;;;;21.52;61.12;100929.91;4930686;29;20032;-70
2023/10/03 00:44:37;;;;;;;21.15;11.05;;;;;;;21.53;60.94;100925.44;4931053;29;20028;-75
2023/10/03 00:47:07;;;;;;;23.25;11.05;;;;;;;21.53;60.87;100917.50;4932004;29;20043;-71
2023/10/03 00:49:33;;;;;;;22.20;11.52;;;;;;;21.54;60.78;100916.53;4929900;29;20035;-72
2023/10/03 00:51:58;;;;;;;21.65;11.50;;;;;;;21.52;61.18;100908.72;4925976;29;20281;-73
2023/10/03 00:54:24;;;;;;;21.35;11.80;;;;;;;21.53;60.91;100893.63;4924665;29;20098;-71
2023/10/03 00:56:50;;;;;;;20.73;11.18;;;;;;;21.53;61.17;100890.97;4925863;29;20226;-70
2023/10/03 00:59:17;;;;;;;22.80;11.63;;;;;;;21.51;60.71;100891.13;4925637;29;20039;-74
2023/10/03 01:01:43;;;;;;;23.33;11.73;;;;;;;21.52;60.85;100882.19;4924421;29;20036;-71
2023/10/03 01:04:16;;;;;;;20.50;10.40;;;;;;;21.52;60.82;100878.69;4910238;29;20901;-75
2023/10/03 01:06:42;;;;;;;21.50;11.13;;;;;;;21.53;60.95;100875.06;4917497;29;20039;-74
2023/10/03 01:09:15;;;;;;;21.27;11.48;;;;;;;21.51;60.92;100872.56;4924560;29;20035;-74
2023/10/03 01:11:40;;;;;;;23.57;12.13;;;;;;;21.51;60.99;100856.66;4916807;29;21050;-70
2023/10/03 01:14:06;;;;;;;20.30;11.45;;;;;;;21.50;60.70;100848.84;4907706;29;20074;-74
2023/10/03 01:16:36;;;;;;;21.95;11.80;;;;;;;21.52;60.72;100846.88;4924245;29;20496;-71
2023/10/03 01:19:25;;;;;;;22.23;10.85;;;;;;;21.50;61.08;100840.88;4924477;29;20126;-74
2023/10/03 01:21:52;;;;;;;22.02;12.13;;;;;;;21.51;60.60;100846.03;4917260;29;20051;-71
2023/10/03 01:24:21;;;;;;;21.45;11.48;;;;;;;21.51;60.94;100845.22;4924518;29;20032;-72
2023/10/03 01:26:49;;;;;;;22.73;11.20;;;;;;;21.50;60.88;100839.06;4924249;29;20139;-75
2023/10/03 01:29:15;;;;;;;22.10;11.45;;;;;;;21.48;60.73;100835.72;4923632;29;20135;-70
2023/10/03 01:31:41;;;;;;;22.23;11.32;;;;;;;21.49;60.74;100828.59;4923291;29;20074;-72
2023/10/03 01:34:07;;;;;;;22.08;11.23;;;;;;;21.49;60.73;100832.09;4924956;29;20027;-71
2023/10/03 01:36:33;;;;;;;24.42;11.75;;;;;;;21.48;60.82;100832.22;4924206;29;20094;-72
2023/10/03 01:38:58;;;;;;;21.10;11.83;;;;;;;21.49;60.63;100840.06;4925770;29;20031;-77
2023/10/03 01:41:23;;;;;;;24.95;11.85;;;;;;;21.48;60.56;100822.47;4925017;29;20272;-72
2023/10/03 01:43:49;;;;;;;23.70;11.55;;;;;;;21.49;61.02;100820.66;4923477;29;20118;-74
2023/10/03 01:46:17;;;;;;;21.98;11.43;;;;;;;21.48;60.89;100825.13;4924606;29;20114;-71
2023/10/03 01:48:43;;;;;;;23.30;12.23;;;;;;;21.47;60.84;100823.41;4924197;29;20035;-71
2023/10/03 01:51:09;;;;;;;22.38;11.38;;;;;;;21.47;60.99;100823.41;4924709;29;20032;-71
2023/10/03 01:53:35;;;;;;;22.52;11.63;;;;;;;21.46;60.44;100812.94;4925096;29;20164;-73
2023/10/03 01:56:00;;;;;;;20.63;10.77;;;;;;;21.47;60.67;100817.28;4922339;29;20036;-71
2023/10/03 01:58:26;;;;;;;21.77;11.43;;;;;;;21.46;60.82;100827.06;4906761;29;20086;-70
2023/10/03 02:00:51;;;;;;;21.17;11.48;;;;;;;21.47;60.91;100818.09;4924347;29;20039;-76
2023/10/03 02:03:18;;;;;;;20.77;10.95;;;;;;;21.47;60.91;100814.63;4924062;29;20409;-71
2023/10/03 02:05:45;;;;;;;20.80;11.40;;;;;;;21.47;60.76;100814.63;4924191;29;20028;-71
2023/10/03 02:08:18;;;;;;;20.55;10.75;;;;;;;21.45;60.80;100813.97;4927242;29;20063;-76
2023/10/03 02:10:45;;;;;;;22.48;11.45;;;;;;;21.46;60.63;100812.94;4925432;29;20044;-71
2023/10/03 02:13:14;;;;;;;22.83;10.90;;;;;;;21.44;60.67;100806.97;4925068;29;20312;-77
2023/10/03 02:15:44;;;;;;;21.55;11.00;;;;;;;21.44;60.50;100797.19;4924629;29;20035;-71
2023/10/03 02:18:10;;;;;;;23.63;12.23;;;;;;;21.46;60.49;100799.69;4926848;29;20105;-70
2023/10/03 02:21:01;;;;;;;19.55;11.48;;;;;;;21.45;60.59;100792.75;4926459;29;20056;-70
2023/10/03 02:23:27;;;;;;;21.30;10.80;;;;;;;21.45;60.41;100777.66;4925321;29;20106;-77
2023/10/03 02:26:05;;;;;;;23.20;11.48;;;;;;;21.45;60.59;100768.88;4923936;29;20035;-75
2023/10/03 02:28:31;;;;;;;22.40;10.95;;;;;;;21.45;60.79;100779.50;4924530;29;20042;-74
2023/10/03 02:30:57;;;;;;;21.17;11.27;;;;;;;21.44;60.59;100791.06;4924088;29;20067;-69
2023/10/03 02:33:23;;;;;;;21.83;11.40;;;;;;;21.44;60.63;100799.84;4925953;29;20043;-73
2023/10/03 02:35:48;;;;;;;22.92;11.77;;;;;;;21.44;60.70;100786.59;4926021;29;20038;-75
2023/10/03 02:38:24;;;;;;;20.33;10.63;;;;;;;21.44;60.86;100796.38;4922870;29;20809;-77
2023/10/03 02:40:59;;;;;;;20.52;10.57;;;;;;;21.43;60.92;100789.38;4922487;29;20036;-74
2023/10/03 02:43:30;;;;;;;21.00;11.50;;;;;;;21.43;60.48;100794.69;4923322;29;20126;-72
2023/10/03 02:45:56;;;;;;;20.90;11.23;;;;;;;21.44;60.67;100789.25;4922086;29;20123;-70
2023/10/03 02:48:22;;;;;;;23.50;10.93;;;;;;;21.43;60.73;100800.00;4922689;29;20032;-75
2023/10/03 02:50:50;;;;;;;23.15;11.05;;;;;;;21.42;60.72;100796.50;4919341;29;20039;-71
2023/10/03 02:53:22;;;;;;;22.48;11.25;;;;;;;21.43;60.48;100797.34;4922989;29;20043;-72
2023/10/03 02:55:48;;;;;;;24.45;11.85;;;;;;;21.43;60.47;100800.00;4922516;29;20437;-78
2023/10/03 02:58:14;;;;;;;20.88;11.20;;;;;;;21.44;60.67;100806.97;4922747;29;20736;-72
2023/10/03 03:00:41;;;;;;;21.77;11.05;;;;;;;21.43;60.47;100805.28;4922245;29;20082;-73
2023/10/03 03:03:09;;;;;;;21.92;10.93;;;;;;;21.43;60.44;100806.16;4922967;29;20477;-77
2023/10/03 03:05:36;;;;;;;22.90;11.05;;;;;;;21.44;60.58;100799.03;4922685;29;20247;-74
2023/10/03 03:10:41;;;;;;;20.45;10.57;;;;;;;21.43;60.31;100802.66;4916970;29;20095;-72
2023/10/03 03:13:08;;;;;;;21.30;10.65;;;;;;;21.44;60.02;100799.03;4917991;29;20512;-71
2023/10/03 03:15:36;;;;;;;19.90;10.15;;;;;;;21.40;60.32;100808.25;4924060;29;20110;-73
2023/10/03 03:18:02;;;;;;;20.05;9.68;;;;;;;21.43;60.50;100808.81;4922824;29;20043;-75
2023/10/03 03:20:36;;;;;;;18.90;9.65;;;;;;;21.43;60.68;100795.53;4924345;29;20031;-72
2023/10/03 03:23:02;;;;;;;20.48;10.07;;;;;;;21.43;60.40;100806.16;4922705;29;20046;-73
2023/10/03 03:25:42;;;;;;;19.45;10.45;;;;;;;21.43;60.74;100807.94;4923019;29;20036;-72
2023/10/03 03:28:14;;;;;;;21.88;10.55;;;;;;;21.43;60.67;100800.84;4922016;29;20065;-77
2023/10/03 03:30:46;;;;;;;19.75;9.68;;;;;;;21.41;60.69;100800.13;4898748;29;20413;-77
2023/10/03 03:33:19;;;;;;;19.30;9.88;;;;;;;21.41;60.60;100794.84;4921083;29;20047;-72
2023/10/03 03:35:48;;;;;;;18.60;9.52;;;;;;;21.43;60.61;100792.03;4922607;29;20123;-72
2023/10/03 03:38:18;;;;;;;18.35;10.25;;;;;;;21.42;60.45;100801.00;4922735;29;20131;-73
2023/10/03 03:40:56;;;;;;;21.08;10.35;;;;;;;21.42;60.59;100793.88;4905813;29;20032;-72
2023/10/03 03:43:36;;;;;;;19.98;9.98;;;;;;;21.42;60.21;100799.16;4921186;29;20058;-77
2023/10/03 03:46:02;;;;;;;18.50;9.63;;;;;;;21.43;60.42;100800.00;4923244;29;20481;-71
2023/10/03 03:48:27;;;;;;;17.55;9.70;;;;;;;21.43;60.60;100798.19;4922243;29;20855;-71
2023/10/03 03:50:52;;;;;;;20.17;9.63;;;;;;;21.41;60.45;100797.50;4921886;29;20044;-72
2023/10/03 03:53:19;;;;;;;18.85;9.68;;;;;;;21.42;60.68;100803.66;4924264;29;20818;-72
2023/10/03 03:55:45;;;;;;;17.58;10.57;;;;;;;21.43;60.69;100800.00;4931673;29;20027;-71
2023/10/03 03:58:18;;;;;;;18.17;9.10;;;;;;;21.41;60.44;100805.44;4930169;29;20493;-74
2023/10/03 04:00:50;;;;;;;18.00;9.73;;;;;;;21.41;60.48;100809.91;4922765;29;20039;-70
2023/10/03 04:03:18;;;;;;;18.30;8.93;;;;;;;21.42;60.55;100822.19;4930502;29;20031;-71
2023/10/03 04:05:45;;;;;;;16.80;9.18;;;;;;;21.41;60.73;100821.34;4931608;29;20040;-71
2023/10/03 04:08:11;;;;;;;16.80;8.52;;;;;;;21.42;60.54;100819.56;4928749;29;20031;-71
2023/10/03 04:10:37;;;;;;;15.97;8.07;;;;;;;21.43;60.42;100818.53;4928886;29;21232;-76
2023/10/03 04:13:07;;;;;;;15.75;8.73;;;;;;;21.41;60.90;100834.59;4928884;29;20273;-75
2023/10/03 04:15:33;;;;;;;16.63;8.82;;;;;;;21.42;60.51;100832.81;4930666;29;20036;-72
2023/10/03 04:17:58;;;;;;;15.45;8.68;;;;;;;21.42;60.65;100832.81;4927526;29;20031;-73
2023/10/03 04:20:35;;;;;;;18.73;8.60;;;;;;;21.41;60.54;100831.94;4929269;29;20513;-72
2023/10/03 04:23:03;;;;;;;17.45;8.27;;;;;;;21.42;60.79;100840.75;4932119;28;20059;-72
2023/10/03 04:25:30;;;;;;;15.63;8.05;;;;;;;21.41;60.73;100853.16;4928179;29;20038;-77
2023/10/03 04:27:56;;;;;;;17.45;8.25;;;;;;;21.40;60.82;100856.81;4928776;29;20122;-75
2023/10/03 04:30:26;;;;;;;12.57;7.20;;;;;;;21.39;60.96;100855.13;4929023;29;20559;-74
2023/10/03 04:32:53;;;;;;;15.00;7.28;;;;;;;21.41;60.68;100858.47;4929236;28;20028;-72
2023/10/03 04:35:20;;;;;;;15.13;7.88;;;;;;;21.41;60.76;100854.97;4927925;29;20559;-73
2023/10/03 04:37:46;;;;;;;14.50;7.45;;;;;;;21.41;60.37;100855.81;4928444;29;20114;-70
2023/10/03 04:40:16;;;;;;;13.45;7.03;;;;;;;21.40;60.59;100859.47;4917981;29;20532;-72
2023/10/03 04:42:44;;;;;;;15.20;7.47;;;;;;;21.42;60.47;100867.28;4922049;29;20036;-76
2023/10/03 04:45:10;;;;;;;14.00;6.95;;;;;;;21.41;60.74;100863.75;4930593;29;20028;-74
2023/10/03 04:47:41;;;;;;;14.38;8.27;;;;;;;21.41;60.75;100865.59;4914483;29;20489;-71
2023/10/03 04:50:08;;;;;;;13.85;6.55;;;;;;;21.41;60.77;100873.53;4930128;29;20024;-71
2023/10/03 04:52:33;;;;;;;11.88;6.60;;;;;;;21.42;60.45;100875.22;4929560;29;20046;-73
2023/10/03 04:54:58;;;;;;;14.02;7.07;;;;;;;21.41;60.52;100879.66;4927113;29;20080;-76
2023/10/03 04:57:27;;;;;;;13.77;6.45;;;;;;;21.43;60.61;100895.44;4927463;29;20063;-72
2023/10/03 04:59:56;;;;;;;11.73;6.47;;;;;;;21.41;60.15;100884.16;4927683;29;20047;-73
2023/10/03 05:02:22;;;;;;;13.05;6.65;;;;;;;21.42;60.52;100891.13;4927879;29;20028;-73
2023/10/03 05:04:48;;;;;;;11.82;6.40;;;;;;;21.42;60.21;100883.19;4926370;29;20036;-72
2023/10/03 05:07:13;;;;;;;11.38;6.20;;;;;;;21.41;60.45;100881.50;4923002;29;20039;-72
2023/10/03 05:09:38;;;;;;;13.65;6.63;;;;;;;21.41;60.35;100905.34;4925165;29;21386;-73
2023/10/03 05:12:05;;;;;;;11.77;6.85;;;;;;;21.41;60.53;100911.47;4925116;29;20059;-72
2023/10/03 05:14:31;;;;;;;13.20;6.45;;;;;;;21.40;60.20;100911.66;4924367;29;20040;-71
2023/10/03 05:17:00;;;;;;;13.95;6.57;;;;;;;21.41;60.26;100926.56;4923771;29;20039;-71
2023/10/03 05:19:25;;;;;;;12.07;6.30;;;;;;;21.40;60.45;100936.34;4925439;29;20043;-72
2023/10/03 05:21:52;;;;;;;11.68;5.90;;;;;;;21.42;60.29;100941.50;4924861;29;20866;-73
2023/10/03 05:24:19;;;;;;;12.38;6.10;;;;;;;21.42;60.06;100938.84;4925825;29;20039;-72
2023/10/03 05:26:44;;;;;;;12.63;6.30;;;;;;;21.40;60.34;100923.09;4925074;29;20118;-75
2023/10/03 05:29:10;;;;;;;11.77;5.90;;;;;;;21.40;60.47;100909.00;4924809;29;20354;-72
2023/10/03 05:31:40;;;;;;;11.32;6.50;;;;;;;21.41;60.09;100902.69;4926845;29;20467;-75
2023/10/03 05:34:06;;;;;;;10.65;6.40;;;;;;;21.42;60.37;100907.03;4923733;29;20035;-73
2023/10/03 05:36:32;;;;;;;11.25;6.10;;;;;;;21.40;60.29;100904.53;4927280;29;20456;-71
2023/10/03 05:38:57;;;;;;;11.53;5.67;;;;;;;21.40;60.32;100904.53;4918316;29;20044;-71
2023/10/03 05:41:23;;;;;;;10.70;5.82;;;;;;;21.41;60.04;100915.97;4930536;29;20286;-70
2023/10/03 05:43:49;;;;;;;11.93;6.80;;;;;;;21.38;60.02;100914.44;4938387;29;20123;-71
2023/10/03 05:46:14;;;;;;;10.80;5.80;;;;;;;21.38;59.95;100915.28;4938592;29;20393;-70
2023/10/03 05:48:40;;;;;;;11.70;5.75;;;;;;;21.37;60.13;100908.28;4920683;29;20730;-74
2023/10/03 05:51:06;;;;;;;11.68;6.00;;;;;;;21.40;60.26;100911.66;4937454;29;20036;-71
2023/10/03 05:53:32;;;;;;;11.57;6.13;;;;;;;21.38;59.90;100920.56;4935144;29;20039;-71
2023/10/03 05:55:58;;;;;;;9.68;5.75;;;;;;;21.38;60.31;100923.22;4934352;29;20086;-71
2023/10/03 05:58:23;;;;;;;12.65;6.05;;;;;;;21.38;60.07;100923.22;4931919;29;20416;-75
2023/10/03 06:00:49;;;;;;;12.98;6.13;;;;;;;21.38;60.55;100925.88;4922624;29;20409;-71
2023/10/03 06:03:15;;;;;;;11.77;6.30;;;;;;;21.39;60.24;100932.00;4928115;29;20028;-70
2023/10/03 06:05:41;;;;;;;10.90;6.10;;;;;;;21.38;60.55;100933.84;4926093;29;20556;-72
2023/10/03 06:08:07;;;;;;;11.15;5.88;;;;;;;21.38;60.26;100928.53;4928293;29;20032;-70
2023/10/03 06:10:32;;;;;;;10.20;5.47;;;;;;;21.39;60.42;100926.69;4924478;29;20035;-74
2023/10/03 06:12:58;;;;;;;10.05;5.60;;;;;;;21.41;60.12;100926.56;4925160;29;20031;-74
2023/10/03 06:15:24;;;;;;;12.07;6.45;;;;;;;21.41;60.11;100921.25;4920664;29;20390;-72
2023/10/03 06:17:52;;;;;;;11.73;5.70;;;;;;;21.41;60.19;100927.38;4925524;29;20031;-72
2023/10/03 06:20:17;;;;;;;11.55;5.25;;;;;;;21.42;60.37;100944.16;4926940;29;20027;-71
2023/10/03 06:22:43;;;;;;;10.25;5.70;;;;;;;21.41;60.35;100945.13;4917071;29;20091;-72
2023/10/03 06:25:09;;;;;;;11.23;5.60;;;;;;;21.40;60.49;100939.00;4924147;29;20393;-73
2023/10/03 06:27:35;;;;;;;12.52;5.07;;;;;;;21.41;60.30;100953.06;4924227;29;20039;-73
2023/10/03 06:30:00;;;;;;;11.30;5.60;;;;;;;21.42;60.93;100960.06;4922883;29;20806;-76
2023/10/03 06:32:26;;;;;;;10.95;5.63;;;;;;;21.38;60.43;100952.38;4915301;29;20036;-75
2023/10/03 06:34:52;;;;;;;14.23;6.07;;;;;;;21.40;60.64;100951.41;4924683;29;20142;-72
2023/10/03 06:37:17;;;;;;;10.25;6.05;;;;;;;21.37;60.89;100953.34;4923282;29;20832;-74
2023/10/03 06:39:42;;;;;;;12.52;6.05;;;;;;;21.39;60.71;100950.56;4923129;29;20047;-73
2023/10/03 06:42:08;;;;;;;11.57;5.63;;;;;;;21.41;60.92;100959.19;4923788;29;20039;-73
2023/10/03 06:44:36;;;;;;;13.63;6.00;;;;;;;21.41;60.77;100961.84;4923788;29;20044;-73
2023/10/03 06:47:03;;;;;;;10.65;5.95;;;;;;;21.42;60.63;100975.97;4921985;29;20485;-73
2023/10/03 06:49:29;;;;;;;9.60;5.15;;;;;;;21.42;60.87;100973.31;4905943;29;20039;-74
2023/10/03 06:51:57;;;;;;;13.52;5.50;;;;;;;21.42;60.41;100979.44;4923236;29;20039;-73
2023/10/03 06:54:23;;;;;;;10.65;5.07;;;;;;;21.42;60.83;100989.22;4922833;29;20091;-74
2023/10/03 06:56:50;;;;;;;10.38;5.40;;;;;;;21.41;61.08;100995.50;4922528;29;20035;-73
2023/10/03 06:59:15;;;;;;;10.88;5.78;;;;;;;21.38;60.96;100986.84;4923465;29;20074;-73
2023/10/03 07:01:41;;;;;;;9.77;4.72;;;;;;;21.41;60.71;100992.84;4922684;29;20735;-73
2023/10/03 07:04:10;;;;;;;9.75;5.15;;;;;;;21.41;60.79;100996.31;4921454;29;20141;-73
2023/10/03 07:06:35;;;;;;;9.43;5.35;;;;;;;21.42;60.89;101003.31;4921281;29;20770;-73
2023/10/03 07:09:05;;;;;;;12.07;5.60;;;;;;;21.42;60.87;101000.66;4920474;29;20051;-73
2023/10/03 07:11:31;;;;;;;9.50;4.93;;;;;;;21.41;60.41;100990.19;4922877;29;20027;-73
2023/10/03 07:13:56;;;;;;;10.15;5.95;;;;;;;21.40;60.85;100999.16;4922383;29;20043;-74
2023/10/03 07:16:21;;;;;;;10.73;5.13;;;;;;;21.41;60.88;100990.19;4923402;29;20070;-74
2023/10/03 07:18:47;;;;;;;13.90;5.78;;;;;;;21.42;60.79;101000.66;4922237;29;20036;-74
2023/10/03 07:21:15;;;;;;;10.63;5.45;;;;;;;21.43;60.72;101002.34;4922554;29;20047;-74
2023/10/03 07:23:40;;;;;;;10.23;5.25;;;;;;;21.41;61.05;101000.78;4922718;29;20705;-74
2023/10/03 07:26:06;;;;;;;8.70;5.43;;;;;;;21.41;60.84;101012.22;4922739;29;20739;-74
2023/10/03 07:28:32;;;;;;;9.77;5.15;;;;;;;21.40;60.80;101020.34;4921455;29;20039;-73
2023/10/03 07:30:57;;;;;;;9.57;4.82;;;;;;;21.40;61.19;101015.03;4922447;29;20047;-73
2023/10/03 07:33:22;;;;;;;11.23;6.05;;;;;;;21.42;61.35;101011.25;4922357;29;20150;-73
2023/10/03 07:35:48;;;;;;;9.85;5.30;;;;;;;21.42;61.28;101021.84;4921972;29;20477;-74
2023/10/03 07:38:14;;;;;;;9.13;5.18;;;;;;;21.43;61.28;101022.69;4923123;29;20031;-73
2023/10/03 07:40:43;;;;;;;9.30;5.30;;;;;;;21.38;61.77;101010.72;4919974;29;21321;-74
2023/10/03 07:43:12;;;;;;;16.58;5.95;;;;;;;21.40;61.92;101023.00;4922223;29;20031;-73
2023/10/03 07:45:38;;;;;;;10.25;5.40;;;;;;;21.35;62.09;101037.50;4921575;29;20090;-74
2023/10/03 07:48:05;;;;;;;13.88;5.45;;;;;;;21.28;62.29;101044.34;4922424;29;20031;-73
2023/10/03 07:50:34;;;;;;;12.38;5.10;;;;;;;21.25;62.67;101059.69;4920282;29;20050;-74
2023/10/03 07:52:59;;;;;;;10.35;4.82;;;;;;;21.20;62.79;101065.41;4921583;29;20118;-74
2023/10/03 07:55:25;;;;;;;9.13;5.10;;;;;;;21.18;62.97;101068.19;4922625;29;20456;-73
2023/10/03 07:57:54;;;;;;;10.25;5.43;;;;;;;21.19;63.08;101059.28;4921072;29;20058;-72
2023/10/03 08:00:21;;;;;;;9.18;5.13;;;;;;;21.19;62.84;101046.03;4921899;29;20036;-73
2023/10/03 08:02:49;;;;;;;9.90;4.78;;;;;;;21.19;62.92;101064.56;4922133;29;20031;-74
2023/10/03 08:05:15;;;;;;;12.27;4.78;;;;;;;21.19;62.97;101066.41;4921253;29;20164;-74
2023/10/03 08:07:42;;;;;;;8.75;5.07;;;;;;;21.20;62.75;101074.22;4920935;29;20039;-73
2023/10/03 08:10:08;;;;;;;9.85;5.00;;;;;;;21.23;62.77;101088.16;4921492;29;20043;-74
2023/10/03 08:12:38;;;;;;;10.43;4.70;;;;;;;21.26;62.79;101103.78;4904275;29;20035;-73
2023/10/03 08:15:16;;;;;;;9.60;4.97;;;;;;;21.28;62.67;101113.25;4921439;29;20864;-76
2023/10/03 08:17:44;;;;;;;11.98;4.93;;;;;;;21.25;62.39;101084.38;4918825;29;20043;-74
2023/10/03 08:20:14;;;;;;;8.93;4.57;;;;;;;21.24;62.72;101118.97;4906124;29;20139;-76
2023/10/03 08:22:41;;;;;;;8.13;4.18;;;;;;;21.22;62.89;101127.09;4922556;29;20039;-76
2023/10/03 08:25:08;;;;;;;11.10;5.53;;;;;;;21.21;63.15;101136.00;4921559;29;20079;-77
2023/10/03 08:27:33;;;;;;;8.00;4.60;;;;;;;21.20;63.19;101126.38;4926531;29;20539;-80
2023/10/03 08:30:01;;;;;;;10.87;4.83;;;;;;;21.20;63.31;101136.97;4930540;29;20055;-79
2023/10/03 08:32:26;;;;;;;7.63;4.55;;;;;;;21.22;62.75;101143.00;4927523;29;20282;-76
2023/10/03 08:34:52;;;;;;;13.55;5.30;;;;;;;21.22;63.17;101142.13;4925905;29;20027;-78
2023/10/03 08:37:24;;;;;;;9.07;4.50;;;;;;;21.22;63.37;101140.34;4921323;29;20032;-76
2023/10/03 08:39:51;;;;;;;8.45;4.85;;;;;;;21.22;63.18;101142.13;4930322;29;20032;-75
2023/10/03 08:42:35;;;;;;;6.22;3.78;;;;;;;21.22;63.17;101160.69;4928643;29;20093;-78
2023/10/03 08:45:22;;;;;;;7.13;4.50;;;;;;;21.25;62.88;101155.94;4918588;29;20106;-78
2023/10/03 08:47:50;;;;;;;10.68;4.75;;;;;;;21.26;62.91;101175.34;4908077;29;20036;-76
2023/10/03 08:50:33;;;;;;;10.52;4.03;;;;;;;21.25;63.06;101181.63;4925819;29;20043;-76
2023/10/03 08:53:12;;;;;;;9.65;3.92;;;;;;;21.25;62.98;101176.31;4927641;29;20081;-75
2023/10/03 08:55:42;;;;;;;8.00;3.50;;;;;;;21.24;63.09;101175.47;4910810;29;20095;-75
2023/10/03 08:58:08;;;;;;;8.18;3.88;;;;;;;21.23;62.96;101189.69;4927456;29;20042;-76
2023/10/03 09:00:40;;;;;;;8.27;3.75;;;;;;;21.23;62.88;101191.53;4924539;29;20039;-78
2023/10/03 09:03:12;;;;;;;9.93;3.65;;;;;;;21.22;62.79;101203.94;4928281;29;20122;-75
2023/10/03 09:05:41;;;;;;;7.22;3.33;;;;;;;21.24;62.63;101220.53;4937296;29;20114;-78
2023/10/03 09:08:09;;;;;;;8.48;3.28;;;;;;;21.23;62.88;101236.59;4937124;29;20429;-75
2023/10/03 09:10:50;;;;;;;7.35;2.97;;;;;;;21.22;62.59;101237.53;4916722;29;20043;-72
2023/10/03 09:13:23;;;;;;;6.45;3.05;;;;;;;21.20;62.68;101248.28;4935534;29;20035;-81
2023/10/03 09:15:51;;;;;;;7.22;2.97;;;;;;;21.20;62.63;101246.50;4936613;29;20032;-75
2023/10/03 09:18:21;;;;;;;6.38;2.55;;;;;;;21.21;62.33;101252.63;4931907;29;20035;-75
2023/10/03 09:20:49;;;;;;;5.43;2.60;;;;;;;21.21;62.16;101276.47;4915584;29;20484;-74
2023/10/03 09:23:17;;;;;;;5.65;2.88;;;;;;;21.22;62.46;101269.34;4929935;29;20039;-74
2023/10/03 09:25:43;;;;;;;5.72;3.17;;;;;;;21.22;62.38;101280.81;4924648;29;20050;-73
2023/10/03 09:28:12;;;;;;;6.15;2.70;;;;;;;21.20;62.13;101286.25;4924336;29;20040;-76
2023/10/03 09:30:38;;;;;;;7.28;2.83;;;;;;;21.20;62.24;101283.59;4910726;29;20056;-74
2023/10/03 09:33:11;;;;;;;5.18;2.60;;;;;;;21.19;62.30;101296.97;4924711;29;20091;-74
2023/10/03 09:35:39;;;;;;;4.65;2.17;;;;;;;21.20;62.34;101293.34;4923531;29;20040;-74
2023/10/03 09:38:17;;;;;;;4.80;2.15;;;;;;;21.18;62.18;101296.13;4926180;29;20062;-74
2023/10/03 09:40:50;;;;;;;6.05;2.50;;;;;;;21.19;62.08;101291.69;4930646;29;20063;-74
2023/10/03 09:43:17;;;;;;;4.45;2.35;;;;;;;21.20;62.19;101288.91;4929308;29;20436;-74
2023/10/03 09:45:46;;;;;;;5.93;2.70;;;;;;;21.21;61.93;101289.72;4928485;29;20074;-72
2023/10/03 09:48:14;;;;;;;4.57;2.13;;;;;;;21.20;62.00;101298.63;4926026;29;20154;-75
2023/10/03 09:50:51;;;;;;;4.88;2.13;;;;;;;21.18;61.87;101301.41;4909980;29;20823;-73
2023/10/03 09:53:19;;;;;;;5.60;2.30;;;;;;;21.18;61.94;101313.84;4913230;29;20067;-73
2023/10/03 09:55:46;;;;;;;5.38;2.05;;;;;;;21.16;62.08;101308.69;4911855;29;20032;-74
2023/10/03 09:58:24;;;;;;;7.43;2.33;;;;;;;21.17;62.02;101314.81;4912325;29;20103;-75
2023/10/03 10:00:53;;;;;;;6.88;2.45;;;;;;;21.15;62.27;101317.59;4913364;29;20038;-74
2023/10/03 10:03:26;;;;;;;5.10;2.10;;;;;;;21.16;62.00;101313.16;4912048;29;20031;-74
2023/10/03 10:06:12;;;;;;;5.80;2.03;;;;;;;21.17;61.83;101334.22;4912640;29;20807;-74
2023/10/03 10:08:59;;;;;;;5.70;2.25;;;;;;;21.17;62.29;101351.91;4912730;29;20031;-74
2023/10/03 10:11:30;;;;;;;5.20;2.13;;;;;;;21.19;62.08;101334.09;4922185;29;20144;-75
2023/10/03 10:14:09;;;;;;;4.90;1.95;;;;;;;21.18;62.18;101341.19;4923749;29;20040;-75
2023/10/03 10:16:58;;;;;;;6.03;2.40;;;;;;;21.16;62.26;101348.44;4902668;29;20048;-74
2023/10/03 10:19:24;;;;;;;5.50;1.90;;;;;;;21.19;61.83;101369.38;4917039;29;20476;-75
2023/10/03 10:21:59;;;;;;;6.15;2.17;;;;;;;21.18;62.17;101380.94;4917158;29;20031;-75
2023/10/03 10:24:25;;;;;;;5.45;1.80;;;;;;;21.20;61.94;101386.97;4914188;29;20031;-74
2023/10/03 10:26:52;;;;;;;4.82;1.95;;;;;;;21.22;61.52;101393.94;4918605;29;20035;-75
2023/10/03 10:29:20;;;;;;;3.80;1.55;;;;;;;21.22;61.59;101394.78;4914997;29;20074;-78
2023/10/03 10:31:57;;;;;;;4.13;1.88;;;;;;;21.22;61.80;101388.63;4911542;29;20047;-73
2023/10/03 10:34:40;;;;;;;9.68;1.90;;;;;;;21.23;61.49;101396.44;4909979;29;20791;-75
2023/10/03 10:37:09;;;;;;;5.07;1.80;;;;;;;21.22;61.86;101393.94;4910205;29;20046;-77
2023/10/03 10:39:53;;;;;;;5.07;1.80;;;;;;;21.22;61.83;101399.22;4911663;29;20038;-75
2023/10/03 10:42:20;;;;;;;6.15;2.20;;;;;;;21.23;62.04;101412.34;4919249;29;20087;-75
2023/10/03 10:45:04;;;;;;;5.00;1.60;;;;;;;21.23;61.85;101408.88;4914348;29;20043;-77
2023/10/03 10:47:43;;;;;;;5.15;1.90;;;;;;;21.24;61.80;101421.13;4910100;29;20759;-76
2023/10/03 10:50:09;;;;;;;4.68;1.90;;;;;;;21.23;61.74;101428.25;4919132;29;20071;-80
2023/10/03 10:52:56;;;;;;;4.55;1.67;;;;;;;21.24;61.70;101434.38;4917752;29;20035;-76
2023/10/03 10:55:26;;;;;;;4.38;1.50;;;;;;;21.24;61.64;101431.75;4897869;29;20057;-75
2023/10/03 10:58:13;;;;;;;6.10;1.60;;;;;;;21.24;61.40;101427.28;4919989;29;20035;-76
2023/10/03 11:00:39;;;;;;;4.13;1.50;;;;;;;21.27;61.54;101442.09;4913301;29;20032;-70
2023/10/03 11:03:06;;;;;;;3.30;1.35;;;;;;;21.28;61.37;101443.78;4912164;28;20469;-72
2023/10/03 11:05:49;;;;;;;3.47;1.40;;;;;;;21.26;61.67;101446.56;4911239;29;20042;-72
2023/10/03 11:08:19;;;;;;;5.53;1.50;;;;;;;21.28;61.42;101447.25;4912100;29;20059;-74
2023/10/03 11:10:56;;;;;;;3.38;1.25;;;;;;;21.28;61.60;101449.91;4911127;29;20493;-73
2023/10/03 11:13:23;;;;;;;4.55;1.50;;;;;;;21.29;61.34;101459.53;4918472;29;20166;-78
2023/10/03 11:15:52;;;;;;;4.03;1.30;;;;;;;21.30;61.42;101455.94;4915066;29;20031;-76
2023/10/03 11:18:26;;;;;;;3.58;1.35;;;;;;;21.32;61.33;101451.34;4914039;29;20035;-76
2023/10/03 11:20:51;;;;;;;;;;;;;;;21.34;61.44;101449.38;4901789;29;20032;-76
2023/10/03 11:23:18;;;;;;;3.65;1.27;;;;;;;21.35;61.29;101451.06;4912036;29;19998;-75
2023/10/03 11:26:00;;;;;;;2.97;1.20;;;;;;;21.33;61.24;101453.03;4909308;29;20127;-76